Time;durP1;ratioP1;P1;durP2;ratioP2;P2;SDS_P1;SDS_P2;PMS_P1;PMS_P2;Temp;Humidity;BMP_temperature;BMP_pressure;BME280_temperature;BME280_humidity;BME280_pressure;Samples;Min_cycle;Max_cycle;Signal;HPM_P1;HPM_P2
2023/09/11 00:01:37;;;;;;;4.38;3.95;;;;;;;17.89;57.47;95250.72;5118163;28;20263;-69
2023/09/11 00:04:04;;;;;;;4.05;3.55;;;;;;;17.83;57.15;95250.34;5136202;28;20194;-69
2023/09/11 00:06:32;;;;;;;5.68;3.97;;;;;;;17.82;57.31;95248.72;5119575;27;20199;-69
2023/09/11 00:09:01;;;;;;;5.63;3.80;;;;;;;17.77;57.01;95254.69;5122484;27;20186;-69
2023/09/11 00:11:28;;;;;;;6.53;3.83;;;;;;;17.74;57.39;95249.88;5140430;27;20179;-69
2023/09/11 00:13:55;;;;;;;8.35;3.88;;;;;;;17.72;57.08;95249.44;5122161;27;20222;-69
2023/09/11 00:16:21;;;;;;;4.70;3.50;;;;;;;17.67;57.18;95256.22;5140441;27;20224;-69
2023/09/11 00:18:49;;;;;;;5.32;3.40;;;;;;;17.64;57.43;95253.44;5139936;27;20206;-69
2023/09/11 00:21:15;;;;;;;4.55;3.85;;;;;;;17.58;57.29;95247.44;5122136;27;20202;-70
2023/09/11 00:23:43;;;;;;;6.35;3.83;;;;;;;17.53;57.31;95256.97;5122119;27;20526;-70
2023/09/11 00:26:10;;;;;;;4.80;3.70;;;;;;;17.50;57.88;95249.41;5140164;27;20198;-70
2023/09/11 00:28:37;;;;;;;5.18;4.35;;;;;;;17.45;57.38;95247.00;5122106;27;20211;-70
2023/09/11 00:31:04;;;;;;;5.95;4.25;;;;;;;17.43;57.52;95252.19;5118481;28;20231;-69
2023/09/11 00:33:31;;;;;;;4.18;3.75;;;;;;;17.41;58.02;95253.75;5119079;28;20238;-70
2023/09/11 00:35:57;;;;;;;4.57;4.18;;;;;;;17.39;57.95;95250.56;5118069;28;20591;-69
2023/09/11 00:38:24;;;;;;;4.65;4.25;;;;;;;17.37;58.10;95247.38;5119295;28;20192;-69
2023/09/11 00:40:53;;;;;;;4.05;3.58;;;;;;;17.35;58.57;95246.94;5119001;28;20191;-69
2023/09/11 00:43:20;;;;;;;4.85;4.00;;;;;;;17.31;58.69;95244.94;5118287;28;20195;-69
2023/09/11 00:45:50;;;;;;;4.70;4.15;;;;;;;17.29;58.75;95250.13;5118227;28;20192;-70
2023/09/11 00:48:18;;;;;;;4.45;3.65;;;;;;;17.28;58.91;95250.50;5118836;28;20213;-70
2023/09/11 00:50:46;;;;;;;5.82;3.78;;;;;;;17.24;58.76;95247.69;5119346;28;20188;-70
2023/09/11 00:53:14;;;;;;;4.75;4.25;;;;;;;17.22;58.53;95244.53;5117747;28;20257;-69
2023/09/11 00:55:40;;;;;;;4.50;3.30;;;;;;;17.20;58.79;95246.88;5118968;28;20188;-69
2023/09/11 00:58:09;;;;;;;4.57;3.78;;;;;;;17.18;59.20;95243.72;5117724;28;20222;-69
2023/09/11 01:00:36;;;;;;;5.18;4.05;;;;;;;17.14;59.23;95247.66;5118773;27;20215;-69
2023/09/11 01:03:03;;;;;;;4.47;3.90;;;;;;;17.09;59.07;95237.69;5118146;28;20199;-68
2023/09/11 01:05:31;;;;;;;5.40;3.65;;;;;;;17.08;59.53;95236.88;5118829;28;20233;-68
2023/09/11 01:07:58;;;;;;;4.05;3.47;;;;;;;17.05;59.30;95240.44;5117414;28;20200;-69
2023/09/11 01:10:25;;;;;;;4.50;3.38;;;;;;;17.04;59.32;95235.28;5118196;28;20207;-68
2023/09/11 01:12:51;;;;;;;5.43;3.58;;;;;;;17.01;59.61;95236.06;5118042;28;20233;-68
2023/09/11 01:15:20;;;;;;;4.00;3.60;;;;;;;17.00;59.87;95234.47;5118630;28;20190;-68
2023/09/11 01:17:52;;;;;;;4.80;3.53;;;;;;;16.96;60.11;95244.81;5115916;28;20356;-69
2023/09/11 01:20:42;;;;;;;5.38;3.80;;;;;;;16.93;59.72;95242.78;5117505;28;20227;-68
2023/09/11 01:23:37;;;;;;;4.05;3.63;;;;;;;16.87;59.52;95236.78;5117413;28;20188;-68
2023/09/11 01:26:26;;;;;;;6.03;3.90;;;;;;;16.84;59.51;95237.56;5117408;28;20244;-69
2023/09/11 01:29:12;;;;;;;3.70;3.40;;;;;;;16.83;59.34;95236.75;5117555;28;20195;-69
2023/09/11 01:31:39;;;;;;;3.38;3.08;;;;;;;16.81;60.18;95241.09;5135345;27;20247;-69
2023/09/11 01:34:07;;;;;;;4.03;3.42;;;;;;;16.80;60.28;95234.75;5138691;27;20199;-69
2023/09/11 01:36:33;;;;;;;5.50;3.40;;;;;;;16.78;60.48;95236.34;5120895;27;20195;-69
2023/09/11 01:39:00;;;;;;;4.05;3.63;;;;;;;16.79;60.53;95235.94;5120751;27;20187;-69
2023/09/11 01:41:30;;;;;;;4.57;3.10;;;;;;;16.80;60.47;95226.38;5138304;27;20205;-68
2023/09/11 01:44:00;;;;;;;4.43;3.10;;;;;;;16.81;60.84;95227.19;5120203;27;20191;-69
2023/09/11 01:46:29;;;;;;;5.78;3.33;;;;;;;16.80;60.38;95225.59;5103801;27;20194;-68
2023/09/11 01:48:56;;;;;;;3.95;2.78;;;;;;;16.77;60.49;95226.38;5120656;27;20198;-68
2023/09/11 01:51:23;;;;;;;5.40;3.20;;;;;;;16.73;60.92;95225.53;5120415;27;20203;-68
2023/09/11 01:53:51;;;;;;;3.85;3.20;;;;;;;16.75;60.74;95225.97;5120259;27;20271;-69
2023/09/11 01:56:19;;;;;;;4.38;3.45;;;;;;;16.73;60.72;95219.94;5120528;27;20214;-69
2023/09/11 01:58:45;;;;;;;4.63;3.30;;;;;;;16.72;61.43;95223.94;5120425;27;20226;-69
2023/09/11 02:01:12;;;;;;;5.50;3.80;;;;;;;16.70;61.34;95229.88;5119885;27;20202;-69
2023/09/11 02:03:41;;;;;;;4.60;4.20;;;;;;;16.72;61.26;95232.28;5120158;27;20195;-69
2023/09/11 02:06:08;;;;;;;6.88;4.75;;;;;;;16.73;61.07;95225.53;5137866;27;20619;-69
2023/09/11 02:08:35;;;;;;;7.47;5.18;;;;;;;16.73;61.36;95223.53;5137844;27;20183;-69
2023/09/11 02:11:02;;;;;;;6.20;4.75;;;;;;;16.73;61.65;95223.53;5120272;27;20191;-69
2023/09/11 02:13:29;;;;;;;5.68;5.03;;;;;;;16.72;61.56;95226.72;5120101;27;20206;-69
2023/09/11 02:15:55;;;;;;;4.97;4.47;;;;;;;16.69;61.51;95224.69;5119973;27;20187;-68
2023/09/11 02:18:23;;;;;;;5.95;4.30;;;;;;;16.68;61.90;95220.31;5120413;27;20202;-68
2023/09/11 02:20:51;;;;;;;5.63;3.92;;;;;;;16.66;62.10;95222.69;5120140;27;20203;-69
2023/09/11 02:23:18;;;;;;;4.60;4.20;;;;;;;16.58;61.88;95224.63;5137808;27;20256;-70
2023/09/11 02:25:47;;;;;;;5.00;3.53;;;;;;;16.54;61.73;95230.19;5119790;27;20199;-69
2023/09/11 02:28:14;;;;;;;4.57;4.03;;;;;;;16.52;61.69;95229.78;5138018;27;20195;-69
2023/09/11 02:30:41;;;;;;;4.15;3.22;;;;;;;16.47;61.37;95224.56;5136938;27;20237;-69
2023/09/11 02:33:08;;;;;;;4.43;3.30;;;;;;;16.43;62.06;95220.16;5119258;27;20215;-69
2023/09/11 02:35:35;;;;;;;5.18;3.30;;;;;;;16.40;61.85;95218.94;5137442;27;20232;-69
2023/09/11 02:38:04;;;;;;;4.20;3.17;;;;;;;16.33;61.77;95216.09;5137487;27;20191;-70
2023/09/11 02:40:31;;;;;;;5.03;3.53;;;;;;;16.29;61.88;95212.50;5119608;27;20202;-69
2023/09/11 02:42:58;;;;;;;3.67;3.33;;;;;;;16.27;62.32;95218.47;5119591;27;20320;-68
2023/09/11 02:45:24;;;;;;;4.60;3.65;;;;;;;16.22;61.90;95213.25;5119451;27;20199;-69
2023/09/11 02:47:51;;;;;;;4.70;3.35;;;;;;;16.18;62.46;95219.97;5137198;27;20187;-69
2023/09/11 02:50:18;;;;;;;6.38;3.78;;;;;;;16.13;63.01;95219.16;5102342;27;20642;-69
2023/09/11 02:52:45;;;;;;;4.60;3.33;;;;;;;16.10;62.62;95221.91;5118765;27;20650;-69
2023/09/11 02:55:13;;;;;;;4.85;3.50;;;;;;;16.07;62.76;95217.91;5137220;27;20232;-69
2023/09/11 02:57:40;;;;;;;5.35;3.50;;;;;;;16.06;62.93;95210.75;5119258;27;20207;-69
2023/09/11 03:00:09;;;;;;;5.07;3.28;;;;;;;16.04;63.06;95213.09;5118743;27;20199;-69
2023/09/11 03:02:36;;;;;;;4.13;3.65;;;;;;;16.06;63.10;95209.94;5118986;27;20236;-70
2023/09/11 03:05:03;;;;;;;5.45;3.53;;;;;;;16.05;63.06;95217.50;5118727;27;20221;-69
2023/09/11 03:07:30;;;;;;;6.43;3.60;;;;;;;16.03;62.70;95217.06;5118550;27;20195;-69
2023/09/11 03:09:56;;;;;;;6.63;3.97;;;;;;;16.00;62.88;95212.28;5118813;27;20285;-69
2023/09/11 03:12:25;;;;;;;5.18;3.70;;;;;;;15.98;62.61;95220.22;5118672;27;20611;-72
2023/09/11 03:14:52;;;;;;;7.60;4.03;;;;;;;15.95;62.58;95218.19;5101855;27;20215;-71
2023/09/11 03:17:19;;;;;;;4.25;3.80;;;;;;;15.95;62.25;95220.97;5136825;27;20206;-70
2023/09/11 03:19:46;;;;;;;4.55;3.80;;;;;;;15.94;62.80;95221.34;5118752;27;20512;-70
2023/09/11 03:22:13;;;;;;;4.30;3.30;;;;;;;15.92;62.91;95216.19;5119400;27;20202;-70
2023/09/11 03:24:41;;;;;;;5.32;3.05;;;;;;;15.89;62.57;95222.50;5136750;27;20194;-70
2023/09/11 03:27:07;;;;;;;3.33;2.90;;;;;;;15.86;62.95;95212.94;5118295;27;20564;-70
2023/09/11 03:29:35;;;;;;;3.05;2.85;;;;;;;15.82;63.45;95214.88;5118742;27;20206;-70
2023/09/11 03:32:02;;;;;;;4.00;3.03;;;;;;;15.82;63.46;95211.31;5101817;27;20619;-70
2023/09/11 03:34:29;;;;;;;4.70;3.08;;;;;;;15.79;63.09;95210.09;5118968;27;20203;-70
2023/09/11 03:36:56;;;;;;;5.75;3.20;;;;;;;15.79;62.98;95218.44;5118402;27;20187;-70
2023/09/11 03:39:23;;;;;;;4.03;3.03;;;;;;;15.77;63.18;95220.81;5118644;27;20195;-70
2023/09/11 03:41:51;;;;;;;5.90;3.28;;;;;;;15.77;63.58;95220.81;5135696;27;20183;-70
2023/09/11 03:44:18;;;;;;;4.63;3.33;;;;;;;15.77;63.81;95223.59;5118623;27;20202;-71
2023/09/11 03:46:46;;;;;;;4.90;3.05;;;;;;;15.77;63.44;95223.59;5136119;27;20213;-70
2023/09/11 03:49:13;;;;;;;6.57;3.30;;;;;;;15.77;63.28;95217.25;5118595;27;20183;-70
2023/09/11 03:51:39;;;;;;;3.40;3.20;;;;;;;15.73;63.31;95219.19;5117777;28;20207;-70
2023/09/11 03:54:08;;;;;;;3.45;3.13;;;;;;;15.72;63.66;95221.16;5118503;28;20264;-70
2023/09/11 03:56:36;;;;;;;4.72;3.20;;;;;;;15.70;63.51;95223.53;5118923;28;20198;-70
2023/09/11 03:59:03;;;;;;;4.75;3.05;;;;;;;15.68;63.59;95231.44;5118451;28;20528;-70
2023/09/11 04:01:29;;;;;;;4.63;3.40;;;;;;;15.64;63.51;95227.78;5119567;28;20218;-69
2023/09/11 04:03:57;;;;;;;4.10;3.05;;;;;;;15.60;63.58;95222.19;5118515;28;20194;-70
2023/09/11 04:06:25;;;;;;;3.75;3.38;;;;;;;15.59;63.66;95226.16;5118701;28;20245;-69
2023/09/11 04:08:52;;;;;;;4.22;3.78;;;;;;;15.57;63.54;95228.50;5137389;28;20201;-69
2023/09/11 04:11:19;;;;;;;4.80;3.15;;;;;;;15.55;63.91;95233.66;5137479;28;20190;-71
2023/09/11 04:13:46;;;;;;;4.28;3.22;;;;;;;15.58;64.11;95224.56;5118341;28;20219;-68
2023/09/11 04:16:15;;;;;;;5.13;3.80;;;;;;;15.61;63.69;95228.56;5117998;28;20206;-68
2023/09/11 04:18:42;;;;;;;6.15;3.90;;;;;;;15.62;63.38;95230.16;5118727;28;20207;-68
2023/09/11 04:21:09;;;;;;;4.90;3.88;;;;;;;15.61;63.58;95234.09;5118092;28;20249;-68
2023/09/11 04:23:36;;;;;;;5.07;3.53;;;;;;;15.59;63.39;95231.72;5118036;28;20202;-70
2023/09/11 04:26:02;;;;;;;4.70;4.10;;;;;;;15.54;63.17;95232.06;5117641;28;20187;-68
2023/09/11 04:28:29;;;;;;;7.03;3.95;;;;;;;15.49;63.26;95231.59;5118381;28;20610;-68
2023/09/11 04:30:56;;;;;;;7.50;3.92;;;;;;;15.50;63.62;95238.75;5136951;27;20262;-68
2023/09/11 04:33:23;;;;;;;6.90;3.90;;;;;;;15.50;63.53;95239.56;5118027;28;20276;-68
2023/09/11 04:35:51;;;;;;;9.25;4.57;;;;;;;15.50;63.60;95228.44;5117535;28;20195;-67
2023/09/11 04:38:19;;;;;;;5.22;4.10;;;;;;;15.45;63.52;95244.66;5135842;28;20179;-67
2023/09/11 04:40:46;;;;;;;7.00;4.68;;;;;;;15.43;63.81;95238.69;5118103;28;20199;-68
2023/09/11 04:43:13;;;;;;;6.78;4.10;;;;;;;15.36;63.58;95243.00;5135863;28;20191;-67
2023/09/11 04:45:39;;;;;;;6.97;4.10;;;;;;;15.35;64.19;95246.94;5135498;28;20519;-67
2023/09/11 04:48:07;;;;;;;5.63;3.80;;;;;;;15.37;64.62;95241.81;5118145;28;20210;-68
2023/09/11 04:50:33;;;;;;;6.80;4.03;;;;;;;15.43;64.80;95242.25;5117961;28;20195;-68
2023/09/11 04:53:00;;;;;;;5.25;3.65;;;;;;;15.48;64.75;95241.94;5119160;27;20256;-67
2023/09/11 04:55:29;;;;;;;9.15;4.05;;;;;;;15.51;64.57;95237.59;5121716;27;20214;-67
2023/09/11 04:57:55;;;;;;;8.10;4.40;;;;;;;15.55;65.07;95239.22;5139451;27;20195;-67
2023/09/11 05:00:22;;;;;;;5.93;4.15;;;;;;;15.60;65.14;95241.66;5139917;27;20210;-68
2023/09/11 05:02:50;;;;;;;5.57;3.75;;;;;;;15.64;64.81;95239.72;5139450;27;20191;-67
2023/09/11 05:05:17;;;;;;;5.63;4.40;;;;;;;15.66;65.09;95233.00;5139573;27;20183;-68
2023/09/11 05:07:44;;;;;;;4.93;4.00;;;;;;;15.68;65.28;95238.97;5120887;27;20195;-68
2023/09/11 05:10:14;;;;;;;5.25;4.03;;;;;;;15.71;65.24;95241.00;5121431;27;20255;-68
2023/09/11 05:12:42;;;;;;;7.93;4.32;;;;;;;15.71;64.84;95236.22;5139385;27;20180;-68
2023/09/11 05:15:09;;;;;;;4.63;4.15;;;;;;;15.74;65.30;95232.69;5121133;27;20223;-67
2023/09/11 05:17:36;;;;;;;6.35;4.00;;;;;;;15.77;65.32;95231.94;5121434;27;20191;-68
2023/09/11 05:20:04;;;;;;;5.78;4.32;;;;;;;15.83;65.89;95235.16;5120503;27;20550;-68
2023/09/11 05:22:30;;;;;;;6.20;4.10;;;;;;;15.83;66.01;95230.41;5121270;27;20191;-68
2023/09/11 05:24:59;;;;;;;7.25;4.30;;;;;;;15.85;65.82;95225.25;5120807;27;20642;-68
2023/09/11 05:27:28;;;;;;;4.78;4.13;;;;;;;15.90;65.97;95235.22;5120982;27;20202;-68
2023/09/11 05:29:56;;;;;;;3.85;3.47;;;;;;;15.93;65.65;95236.44;5120820;27;20256;-68
2023/09/11 05:32:25;;;;;;;5.05;3.20;;;;;;;15.97;65.07;95226.94;5139151;27;20176;-68
2023/09/11 05:34:52;;;;;;;3.92;3.42;;;;;;;16.04;64.92;95232.56;5138730;27;20199;-68
2023/09/11 05:37:19;;;;;;;3.78;3.35;;;;;;;16.07;64.54;95234.59;5138613;27;20190;-68
2023/09/11 05:39:47;;;;;;;6.03;3.50;;;;;;;16.10;64.77;95233.03;5120337;27;20199;-68
2023/09/11 05:42:14;;;;;;;3.22;2.90;;;;;;;16.12;64.50;95239.81;5120565;27;20191;-68
2023/09/11 05:44:41;;;;;;;6.03;3.30;;;;;;;16.17;64.40;95233.09;5121348;27;20614;-69
2023/09/11 05:47:10;;;;;;;5.20;3.03;;;;;;;16.17;64.37;95233.09;5120679;27;20202;-69
2023/09/11 05:49:37;;;;;;;5.45;2.92;;;;;;;16.17;64.82;95233.09;5138583;27;20186;-68
2023/09/11 05:52:06;;;;;;;3.20;2.90;;;;;;;16.17;64.75;95229.50;5120276;27;20547;-68
2023/09/11 05:54:34;;;;;;;4.13;2.85;;;;;;;16.21;65.03;95235.91;5103408;27;20250;-68
2023/09/11 05:57:00;;;;;;;5.28;3.10;;;;;;;16.20;65.13;95237.88;5138487;27;20176;-68
2023/09/11 05:59:28;;;;;;;5.22;3.33;;;;;;;16.18;65.54;95229.13;5138763;27;20567;-68
2023/09/11 06:01:55;;;;;;;5.82;2.80;;;;;;;16.12;65.24;95230.66;5138274;27;20179;-68
2023/09/11 06:04:23;;;;;;;5.80;3.10;;;;;;;16.05;65.43;95228.63;5120021;27;20191;-68
2023/09/11 06:06:51;;;;;;;3.72;2.75;;;;;;;16.00;65.83;95228.97;5120652;27;20199;-68
2023/09/11 06:09:18;;;;;;;4.13;3.47;;;;;;;15.98;65.74;95233.34;5120353;27;20289;-68
2023/09/11 06:11:45;;;;;;;4.78;3.10;;;;;;;15.93;65.75;95226.13;5137827;27;20542;-70
2023/09/11 06:14:12;;;;;;;4.38;3.72;;;;;;;15.92;66.08;95232.88;5120539;27;20290;-68
2023/09/11 06:16:38;;;;;;;5.10;3.13;;;;;;;15.94;66.19;95236.06;5120079;27;20199;-67
2023/09/11 06:19:05;;;;;;;5.10;3.65;;;;;;;15.96;66.04;95236.47;5119963;27;20199;-68
2023/09/11 06:21:33;;;;;;;5.22;3.70;;;;;;;15.97;66.59;95238.06;5119782;27;20187;-69
2023/09/11 06:24:00;;;;;;;4.60;3.53;;;;;;;16.01;66.59;95238.94;5137922;27;20269;-68
2023/09/11 06:26:27;;;;;;;5.05;3.78;;;;;;;16.06;66.70;95232.19;5120254;27;20201;-68
2023/09/11 06:28:54;;;;;;;6.43;3.50;;;;;;;16.12;65.94;95239.00;5119653;27;20206;-67
2023/09/11 06:31:21;;;;;;;4.45;3.70;;;;;;;16.17;66.31;95238.66;5115885;28;20243;-68
2023/09/11 06:33:48;;;;;;;6.38;3.85;;;;;;;16.23;66.43;95244.66;5115697;28;20240;-68
2023/09/11 06:36:15;;;;;;;6.10;4.10;;;;;;;16.28;65.67;95249.88;5116149;28;20627;-68
2023/09/11 06:38:43;;;;;;;5.28;3.60;;;;;;;16.33;66.41;95244.72;5116206;28;20192;-68
2023/09/11 06:41:10;;;;;;;6.38;3.47;;;;;;;16.45;66.35;95251.19;5116852;28;20198;-68
2023/09/11 06:43:37;;;;;;;4.22;3.83;;;;;;;16.55;66.04;95240.13;5115946;28;20192;-68
2023/09/11 06:46:04;;;;;;;6.90;3.95;;;;;;;16.63;65.48;95243.78;5115906;28;20653;-68
2023/09/11 06:48:31;;;;;;;6.20;3.38;;;;;;;16.68;65.95;95246.19;5115491;28;20211;-68
2023/09/11 06:50:58;;;;;;;4.80;3.33;;;;;;;16.73;65.49;95250.59;5115819;28;20199;-69
2023/09/11 06:53:25;;;;;;;3.72;3.38;;;;;;;16.72;64.81;95241.44;5115878;28;20192;-68
2023/09/11 06:55:53;;;;;;;3.72;3.42;;;;;;;16.70;64.99;95238.22;5116474;28;20208;-68
2023/09/11 06:58:20;;;;;;;4.20;3.53;;;;;;;16.74;64.79;95239.09;5116671;28;20211;-68
2023/09/11 07:00:47;;;;;;;4.55;3.72;;;;;;;16.82;64.53;95240.75;5116867;28;20180;-68
2023/09/11 07:03:16;;;;;;;6.45;4.13;;;;;;;16.90;64.73;95247.16;5115478;28;20206;-68
2023/09/11 07:05:43;;;;;;;7.00;4.63;;;;;;;16.93;63.79;95238.00;5115518;28;20199;-68
2023/09/11 07:08:10;;;;;;;4.50;4.07;;;;;;;16.97;64.21;95244.41;5116210;28;20563;-68
2023/09/11 07:10:36;;;;;;;5.97;3.92;;;;;;;17.00;64.65;95240.84;5116369;28;20184;-67
2023/09/11 07:13:05;;;;;;;6.30;4.13;;;;;;;17.08;64.45;95230.53;5115240;28;20192;-68
2023/09/11 07:15:31;;;;;;;6.35;4.43;;;;;;;17.18;63.85;95240.94;5115434;28;20215;-68
2023/09/11 07:17:59;;;;;;;6.20;4.30;;;;;;;17.25;63.63;95234.59;5115368;28;20210;-68
2023/09/11 07:20:27;;;;;;;5.40;4.63;;;;;;;17.28;62.58;95228.19;5114422;28;20520;-68
2023/09/11 07:22:54;;;;;;;5.82;4.13;;;;;;;17.26;63.12;95225.03;5116337;28;20195;-68
2023/09/11 07:25:22;;;;;;;4.60;3.65;;;;;;;17.35;63.08;95231.03;5115465;28;20191;-68
2023/09/11 07:27:49;;;;;;;6.70;4.28;;;;;;;17.49;62.76;95228.28;5116005;28;20172;-67
2023/09/11 07:30:18;;;;;;;4.47;4.07;;;;;;;17.69;62.47;95225.97;5115419;28;20238;-68
2023/09/11 07:32:45;;;;;;;5.43;3.50;;;;;;;17.79;62.15;95216.84;5116150;28;20192;-68
2023/09/11 07:35:12;;;;;;;5.43;4.10;;;;;;;17.96;61.72;95220.03;5115244;28;20216;-68
2023/09/11 07:37:39;;;;;;;5.03;3.92;;;;;;;18.04;61.41;95218.84;5115965;28;20180;-68
2023/09/11 07:40:08;;;;;;;7.75;5.03;;;;;;;18.21;59.79;95225.66;5115771;28;20207;-68
2023/09/11 07:42:36;;;;;;;6.43;4.60;;;;;;;18.38;59.51;95229.66;5116169;28;20206;-68
2023/09/11 07:45:04;;;;;;;5.70;4.60;;;;;;;18.50;58.21;95218.06;5115968;28;20524;-68
2023/09/11 07:47:32;;;;;;;6.22;4.22;;;;;;;18.65;58.41;95225.22;5115250;28;20206;-73
2023/09/11 07:49:59;;;;;;;5.07;3.78;;;;;;;18.75;58.24;95213.25;5115347;28;20202;-70
2023/09/11 07:52:26;;;;;;;7.82;4.53;;;;;;;18.85;57.69;95214.44;5117001;28;20198;-70
2023/09/11 07:54:52;;;;;;;5.20;4.18;;;;;;;18.86;57.04;95209.66;5116453;28;20200;-71
2023/09/11 07:57:19;;;;;;;7.90;3.90;;;;;;;18.97;57.08;95210.41;5115701;28;20187;-71
2023/09/11 07:59:46;;;;;;;5.97;4.00;;;;;;;19.08;56.24;95215.97;5116506;28;20536;-70
2023/09/11 08:02:13;;;;;;;4.32;3.70;;;;;;;19.22;55.43;95213.13;5116533;28;20184;-70
2023/09/11 08:04:41;;;;;;;5.30;4.07;;;;;;;19.35;54.76;95219.84;5115793;28;20203;-70
2023/09/11 08:07:08;;;;;;;4.05;3.65;;;;;;;19.46;54.65;95208.63;5115494;28;20200;-70
2023/09/11 08:09:35;;;;;;;6.65;4.63;;;;;;;19.52;54.19;95209.78;5115721;28;20199;-69
2023/09/11 08:12:02;;;;;;;4.93;4.43;;;;;;;19.69;52.84;95208.13;5116696;28;20571;-69
2023/09/11 08:14:29;;;;;;;9.25;5.80;;;;;;;19.89;53.17;95211.19;5116691;28;20280;-69
2023/09/11 08:16:56;;;;;;;8.75;6.30;;;;;;;20.00;52.58;95199.94;5116013;28;20199;-69
2023/09/11 08:19:23;;;;;;;7.53;5.30;;;;;;;20.14;51.66;95206.22;5115935;28;20195;-69
2023/09/11 08:21:52;;;;;;;10.73;9.60;;;;;;;20.18;51.85;95198.59;5115486;28;20199;-69
2023/09/11 08:24:19;;;;;;;5.82;5.30;;;;;;;20.34;50.29;95191.69;5115744;28;20202;-69
2023/09/11 08:26:45;;;;;;;8.68;6.88;;;;;;;20.48;50.00;95196.34;5114513;28;20199;-68
2023/09/11 08:29:15;;;;;;;7.35;4.70;;;;;;;20.63;49.54;95197.84;5118583;28;20210;-68
2023/09/11 08:31:42;;;;;;;6.20;4.57;;;;;;;20.79;49.72;95188.88;5117991;28;20239;-68
2023/09/11 08:34:10;;;;;;;7.68;5.00;;;;;;;20.85;49.19;95181.63;5118502;28;20249;-68
2023/09/11 08:36:37;;;;;;;5.85;4.40;;;;;;;20.99;49.55;95177.84;5118760;28;20215;-68
2023/09/11 08:39:05;;;;;;;5.75;4.45;;;;;;;21.07;48.43;95179.38;5118653;28;20200;-68
2023/09/11 08:41:33;;;;;;;5.45;4.25;;;;;;;21.16;47.38;95182.44;5118487;28;20188;-68
2023/09/11 08:43:59;;;;;;;6.07;4.75;;;;;;;21.31;47.99;95183.06;5118892;28;20195;-68
2023/09/11 08:46:28;;;;;;;8.90;5.10;;;;;;;21.31;47.58;95183.06;5118615;28;20199;-68
2023/09/11 08:48:56;;;;;;;4.88;4.38;;;;;;;21.39;47.78;95173.41;5119454;27;20204;-68
2023/09/11 08:51:24;;;;;;;6.65;4.50;;;;;;;21.54;46.20;95183.22;5118189;28;20192;-68
2023/09/11 08:53:52;;;;;;;4.53;3.40;;;;;;;21.63;47.07;95177.84;5119055;28;20184;-68
2023/09/11 08:56:21;;;;;;;4.90;3.83;;;;;;;21.76;47.41;95180.09;5118008;28;20265;-68
2023/09/11 08:58:50;;;;;;;4.32;3.80;;;;;;;21.85;46.48;95171.94;5117954;28;20196;-68
2023/09/11 09:01:17;;;;;;;4.38;3.97;;;;;;;21.92;46.23;95177.44;5118954;28;20207;-68
2023/09/11 09:03:44;;;;;;;4.55;3.80;;;;;;;21.95;44.97;95173.78;5117893;28;20202;-68
2023/09/11 09:06:11;;;;;;;6.13;4.03;;;;;;;22.07;46.10;95170.38;5117972;28;20192;-68
2023/09/11 09:08:38;;;;;;;4.88;4.47;;;;;;;22.17;45.58;95162.25;5118732;28;20186;-68
2023/09/11 09:11:06;;;;;;;4.32;4.00;;;;;;;22.29;43.93;95165.25;5119001;28;20179;-68
2023/09/11 09:13:35;;;;;;;3.60;3.28;;;;;;;22.34;44.44;95161.97;5118648;28;20188;-68
2023/09/11 09:16:02;;;;;;;4.93;4.03;;;;;;;22.40;42.90;95169.91;5118900;28;20207;-69
2023/09/11 09:18:29;;;;;;;4.95;4.05;;;;;;;22.43;44.01;95155.00;5118239;28;20638;-68
2023/09/11 09:20:56;;;;;;;7.45;4.03;;;;;;;22.51;44.09;95159.25;5117963;28;20200;-68
2023/09/11 09:23:32;;;;;;;4.50;3.88;;;;;;;22.55;43.86;95151.59;5117843;28;20187;-69
2023/09/11 09:26:06;;;;;;;4.30;3.90;;;;;;;22.70;43.40;95150.09;5117355;28;20294;-69
2023/09/11 09:28:35;;;;;;;5.72;3.90;;;;;;;22.70;43.05;95144.47;5117788;28;20207;-68
2023/09/11 09:31:02;;;;;;;4.03;3.72;;;;;;;22.75;43.43;95143.97;5118064;28;20239;-68
2023/09/11 09:33:30;;;;;;;5.15;3.90;;;;;;;22.80;42.09;95148.28;5119030;27;20184;-68
2023/09/11 09:35:57;;;;;;;4.25;3.67;;;;;;;22.73;42.14;95137.19;5117712;28;20231;-69
2023/09/11 09:38:26;;;;;;;6.60;3.50;;;;;;;22.80;43.08;95145.47;5118063;28;20188;-69
2023/09/11 09:40:54;;;;;;;4.68;3.55;;;;;;;22.97;42.67;95138.75;5117892;28;20192;-69
2023/09/11 09:43:21;;;;;;;4.05;3.65;;;;;;;23.10;42.55;95136.09;5118584;28;20184;-68
2023/09/11 09:45:50;;;;;;;4.50;4.10;;;;;;;23.28;41.92;95135.72;5117115;28;20199;-68
2023/09/11 09:48:19;;;;;;;6.22;4.93;;;;;;;23.34;41.63;95128.34;5117879;28;20210;-68
2023/09/11 09:50:52;;;;;;;4.75;4.20;;;;;;;23.54;42.12;95139.59;5117167;28;20200;-69
2023/09/11 09:53:24;;;;;;;6.28;5.00;;;;;;;23.66;41.30;95130.47;5117226;28;20211;-68
2023/09/11 09:55:50;;;;;;;4.97;3.58;;;;;;;23.71;41.26;95121.53;5117167;28;20222;-68
2023/09/11 09:58:20;;;;;;;5.05;2.88;;;;;;;23.83;39.88;95116.47;5117971;28;20172;-68
2023/09/11 10:00:46;;;;;;;7.70;4.43;;;;;;;23.82;40.54;95117.66;5117162;28;20192;-68
2023/09/11 10:03:15;;;;;;;6.97;4.18;;;;;;;23.84;40.64;95109.59;5117961;28;20191;-68
2023/09/11 10:05:42;;;;;;;4.93;4.20;;;;;;;23.95;40.53;95107.31;5116825;28;20196;-68
2023/09/11 10:08:09;;;;;;;6.43;3.63;;;;;;;23.96;40.21;95104.03;5117496;28;20187;-68
2023/09/11 10:10:36;;;;;;;6.75;4.07;;;;;;;24.06;39.89;95104.22;5117464;28;20195;-69
2023/09/11 10:13:07;;;;;;;5.63;3.47;;;;;;;24.11;39.50;95110.16;5117231;28;20241;-69
2023/09/11 10:15:36;;;;;;;5.72;3.63;;;;;;;24.23;39.91;95115.06;5116669;28;20643;-68
2023/09/11 10:18:07;;;;;;;4.80;3.92;;;;;;;24.37;39.52;95108.28;5116446;28;20209;-69
2023/09/11 10:20:35;;;;;;;5.40;3.58;;;;;;;24.49;38.96;95107.56;5116960;28;20195;-68
2023/09/11 10:23:04;;;;;;;4.20;3.60;;;;;;;24.54;39.27;95102.63;5116778;28;20306;-68
2023/09/11 10:25:34;;;;;;;7.88;3.95;;;;;;;24.47;38.61;95112.06;5116716;28;20272;-68
2023/09/11 10:28:03;;;;;;;8.00;3.90;;;;;;;24.44;38.76;95096.06;5116466;28;20196;-69
2023/09/11 10:30:34;;;;;;;5.20;3.72;;;;;;;24.45;38.87;95097.63;5116853;28;20242;-68
2023/09/11 10:33:02;;;;;;;5.55;3.33;;;;;;;24.44;38.45;95088.38;5117436;28;20195;-68
2023/09/11 10:35:31;;;;;;;4.88;3.78;;;;;;;24.56;39.01;95088.91;5118119;28;20203;-69
2023/09/11 10:38:00;;;;;;;4.30;3.67;;;;;;;24.61;38.24;95085.53;5099769;28;20260;-68
2023/09/11 10:40:29;;;;;;;3.67;3.38;;;;;;;24.52;37.95;95080.53;5117226;28;20199;-69
2023/09/11 10:42:56;;;;;;;4.38;3.58;;;;;;;24.52;37.83;95085.38;5116618;28;20198;-69
2023/09/11 10:45:27;;;;;;;5.97;4.22;;;;;;;24.57;37.51;95073.56;5116904;28;20188;-69
2023/09/11 10:47:54;;;;;;;5.68;3.83;;;;;;;24.63;38.67;95068.97;5116424;28;20187;-69
2023/09/11 10:50:24;;;;;;;5.82;3.50;;;;;;;24.70;37.69;95075.19;5115896;28;20206;-69
2023/09/11 10:52:54;;;;;;;5.25;3.35;;;;;;;24.87;38.05;95064.63;5116096;28;20196;-69
2023/09/11 10:55:24;;;;;;;4.47;3.60;;;;;;;24.94;38.19;95061.63;5115703;28;20211;-69
2023/09/11 10:57:52;;;;;;;4.95;3.90;;;;;;;25.07;37.28;95061.66;5116889;28;20241;-69
2023/09/11 11:00:19;;;;;;;5.90;3.05;;;;;;;25.04;35.56;95067.41;5116205;28;20249;-69
2023/09/11 11:02:46;;;;;;;4.10;3.47;;;;;;;24.96;36.31;95059.16;5115243;28;20208;-69
2023/09/11 11:05:15;;;;;;;3.92;3.63;;;;;;;24.89;35.98;95065.00;5115506;28;20192;-68
2023/09/11 11:07:42;;;;;;;5.22;3.38;;;;;;;24.99;35.92;95060.28;5115795;28;20586;-68
2023/09/11 11:10:14;;;;;;;5.47;3.40;;;;;;;25.07;36.11;95055.22;5115793;28;20380;-69
2023/09/11 11:12:44;;;;;;;6.05;3.38;;;;;;;25.10;35.43;95048.69;5115291;28;20235;-69
2023/09/11 11:15:22;;;;;;;4.32;3.20;;;;;;;25.09;36.08;95050.72;5115690;28;20200;-68
2023/09/11 11:18:05;;;;;;;4.60;3.53;;;;;;;25.15;36.83;95051.78;5116341;28;20184;-68
2023/09/11 11:20:32;;;;;;;4.38;3.13;;;;;;;25.18;35.34;95052.91;5115459;28;20199;-69
2023/09/11 11:23:07;;;;;;;3.58;3.05;;;;;;;25.03;35.00;95048.91;5115972;28;20183;-69
2023/09/11 11:25:34;;;;;;;5.18;3.63;;;;;;;25.16;35.92;95044.91;5115476;28;20206;-68
2023/09/11 11:28:07;;;;;;;5.68;3.25;;;;;;;25.14;35.55;95046.59;5115132;28;20196;-68
2023/09/11 11:30:35;;;;;;;6.07;3.40;;;;;;;25.15;35.20;95050.97;5115414;28;20234;-69
2023/09/11 11:33:04;;;;;;;4.22;3.03;;;;;;;25.18;34.16;95050.88;5115485;28;20203;-68
2023/09/11 11:35:31;;;;;;;3.80;3.20;;;;;;;25.18;34.93;95042.41;5116099;28;20211;-68
2023/09/11 11:37:58;;;;;;;4.68;3.00;;;;;;;25.27;34.79;95038.91;5115023;28;20536;-68